Time;durP1;ratioP1;P1;durP2;ratioP2;P2;SDS_P1;SDS_P2;PMS_P1;PMS_P2;Temp;Humidity;BMP_temperature;BMP_pressure;BME280_temperature;BME280_humidity;BME280_pressure;Samples;Min_cycle;Max_cycle;Signal;HPM_P1;HPM_P2
2022/05/24 00:02:19;;;;;;;0.20;0.20;;;;;;;17.14;66.32;100137.59;5033162;28;20024;-83
2022/05/24 00:04:46;;;;;;;0.03;0.03;;;;;;;17.27;65.81;100131.50;5033288;28;20056;-83
2022/05/24 00:07:12;;;;;;;0.10;0.10;;;;;;;17.21;65.75;100126.50;5032029;28;20041;-84
2022/05/24 00:09:38;;;;;;;0.10;0.10;;;;;;;17.25;65.73;100112.00;5033650;28;20040;-84
2022/05/24 00:12:05;;;;;;;0.10;0.10;;;;;;;17.14;65.39;100118.84;5032897;28;20091;-83
2022/05/24 00:17:17;;;;;;;0.30;0.30;;;;;;;17.12;65.01;100131.47;5032062;28;20056;-84
2022/05/24 00:19:43;;;;;;;0.30;0.30;;;;;;;17.06;65.52;100118.47;5033349;28;20033;-84
2022/05/24 00:22:09;;;;;;;0.20;0.20;;;;;;;17.18;64.80;100126.72;5032569;28;20037;-84
2022/05/24 00:24:35;;;;;;;0.00;0.00;;;;;;;17.11;65.49;100129.75;5032197;28;20117;-84
2022/05/24 00:27:01;;;;;;;0.05;0.05;;;;;;;17.12;65.25;100128.81;5033076;28;20578;-84
2022/05/24 00:29:28;;;;;;;0.28;0.28;;;;;;;17.06;65.27;100137.19;5033239;28;20516;-84
2022/05/24 00:31:54;;;;;;;0.00;0.00;;;;;;;16.99;65.67;100138.50;5031220;28;20030;-84
2022/05/24 00:34:20;;;;;;;0.03;0.03;;;;;;;17.00;65.76;100142.03;5030897;28;20126;-84
2022/05/24 00:36:46;;;;;;;0.47;0.45;;;;;;;17.16;65.66;100137.53;5032513;28;20443;-84
2022/05/24 00:39:12;;;;;;;0.00;0.00;;;;;;;17.17;66.07;100131.22;5033911;28;20026;-84
2022/05/24 00:41:43;;;;;;;0.90;0.90;;;;;;;17.21;66.15;100129.19;5032550;28;20025;-84
2022/05/24 00:44:32;;;;;;;0.20;0.20;;;;;;;17.08;66.32;100121.88;5029229;28;20548;-83
2022/05/24 00:47:10;;;;;;;0.10;0.10;;;;;;;17.08;66.13;100127.25;5032461;28;20029;-84
2022/05/24 00:49:49;;;;;;;0.40;0.40;;;;;;;17.08;65.80;100116.53;5032146;28;20409;-84
2022/05/24 00:52:19;;;;;;;0.20;0.20;;;;;;;16.95;66.26;100113.72;5025822;28;20030;-84
2022/05/24 00:54:45;;;;;;;0.57;0.57;;;;;;;17.00;66.10;100121.50;5031575;28;20512;-83
2022/05/24 01:02:43;;;;;;;0.63;0.63;;;;;;;16.89;65.28;100123.91;5188895;27;20144;-81
2022/05/24 01:05:16;;;;;;;0.73;0.73;;;;;;;16.88;65.30;100125.69;5128928;27;1236292;-83
2022/05/24 01:07:43;;;;;;;1.25;1.00;;;;;;;16.73;65.13;100130.13;5167763;27;20045;-83
2022/05/24 01:10:15;;;;;;;0.10;0.10;;;;;;;16.80;65.16;100134.16;5162971;27;20073;-83
2022/05/24 01:15:24;;;;;;;0.10;0.10;;;;;;;16.79;65.21;100137.78;5074444;28;20925;-83
2022/05/24 01:17:53;;;;;;;0.50;0.50;;;;;;;16.73;65.02;100131.94;5054669;28;20108;-82
2022/05/24 01:20:20;;;;;;;0.00;0.00;;;;;;;16.64;65.10;100134.19;5049408;28;20041;-83
2022/05/24 01:23:26;;;;;;;0.10;0.10;;;;;;;16.64;64.87;100133.34;5064550;22;20494;-78
2022/05/24 01:26:12;;;;;;;0.10;0.10;;;;;;;16.61;65.18;100123.66;5022511;28;20093;-77
2022/05/24 01:28:50;;;;;;;0.00;0.00;;;;;;;16.61;64.73;100129.03;5028393;28;20088;-77
2022/05/24 01:31:18;;;;;;;0.35;0.35;;;;;;;16.52;64.67;100142.03;5031842;28;20108;-78
2022/05/24 01:36:35;;;;;;;0.22;0.22;;;;;;;16.50;64.36;100134.97;5027538;28;20046;-79
2022/05/24 01:39:04;;;;;;;0.10;0.10;;;;;;;16.47;64.02;100143.16;5042309;28;20100;-79
2022/05/24 01:41:41;;;;;;;1.00;0.85;;;;;;;16.38;63.46;100143.66;5029675;28;20075;-79
2022/05/24 01:44:08;;;;;;;0.68;0.68;;;;;;;16.54;63.38;100143.69;5035427;28;20448;-79
2022/05/24 01:46:38;;;;;;;0.32;0.32;;;;;;;16.47;63.41;100143.16;5013344;28;20037;-79
2022/05/24 01:49:10;;;;;;;1.00;1.00;;;;;;;16.64;63.57;100139.53;5032051;28;20119;-79
2022/05/24 01:51:43;;;;;;;0.03;0.03;;;;;;;16.60;63.37;100132.63;5033255;28;20515;-79
2022/05/24 01:54:13;;;;;;;0.08;0.08;;;;;;;16.63;63.39;100131.59;5034832;28;20117;-79
2022/05/24 01:56:48;;;;;;;0.05;0.05;;;;;;;16.66;63.70;100120.75;5031022;28;20033;-79
2022/05/24 01:59:17;;;;;;;0.10;0.10;;;;;;;16.47;63.98;100124.47;5030960;28;20097;-78
2022/05/24 02:01:48;;;;;;;0.08;0.08;;;;;;;16.58;64.01;100131.00;5030602;28;20041;-78
2022/05/24 02:04:15;;;;;;;0.65;0.65;;;;;;;16.49;64.27;100129.72;5032343;28;20029;-76
2022/05/24 02:06:42;;;;;;;0.20;0.20;;;;;;;16.42;63.87;100133.66;5015485;28;20510;-77
2022/05/24 02:09:09;;;;;;;0.13;0.13;;;;;;;16.40;63.90;100133.75;5024939;28;20037;-77
2022/05/24 02:11:36;;;;;;;0.00;0.00;;;;;;;16.36;64.16;100129.50;5028688;28;20026;-77
2022/05/24 02:14:16;;;;;;;1.77;0.50;;;;;;;16.50;64.13;100137.63;5031454;28;20025;-78
2022/05/24 02:16:50;;;;;;;0.38;0.38;;;;;;;16.41;64.08;100138.16;5018063;28;20029;-78
2022/05/24 02:19:18;;;;;;;0.10;0.10;;;;;;;16.35;64.12;100127.81;5025965;28;20041;-78
2022/05/24 02:21:46;;;;;;;0.20;0.20;;;;;;;16.39;64.27;100129.34;5030345;28;20041;-78
2022/05/24 02:24:18;;;;;;;0.10;0.10;;;;;;;16.39;64.24;100129.34;5030659;28;20040;-78
2022/05/24 02:26:44;;;;;;;0.30;0.30;;;;;;;16.40;64.51;100125.75;5028944;28;20132;-78
2022/05/24 02:29:10;;;;;;;0.10;0.10;;;;;;;16.33;64.51;100114.50;5027219;28;20034;-78
2022/05/24 02:31:36;;;;;;;0.00;0.00;;;;;;;16.32;64.96;100119.94;5016162;28;20061;-78
2022/05/24 02:34:03;;;;;;;0.00;0.00;;;;;;;16.39;64.37;100118.66;5010405;28;20026;-78
2022/05/24 02:36:29;;;;;;;0.25;0.25;;;;;;;16.31;64.55;100110.19;5001720;28;20088;-79
2022/05/24 02:38:58;;;;;;;0.10;0.10;;;;;;;16.45;64.45;100102.28;5013003;28;20033;-79
2022/05/24 02:41:28;;;;;;;0.10;0.10;;;;;;;16.45;64.55;100104.94;5019506;28;20048;-79
2022/05/24 02:43:56;;;;;;;0.10;0.10;;;;;;;16.42;64.57;100106.94;5015520;28;20025;-79
2022/05/24 02:46:22;;;;;;;0.08;0.08;;;;;;;16.42;64.27;100121.16;5009176;28;20403;-78
2022/05/24 02:48:48;;;;;;;0.25;0.25;;;;;;;16.38;64.65;100116.09;5008026;28;20030;-79
2022/05/24 02:51:16;;;;;;;0.10;0.10;;;;;;;16.37;64.91;100115.19;5012429;28;20105;-78
2022/05/24 02:53:43;;;;;;;0.20;0.20;;;;;;;16.30;65.13;100111.16;5011159;28;20423;-78
2022/05/24 02:56:10;;;;;;;0.20;0.20;;;;;;;16.29;65.07;100112.13;5013523;28;20026;-78
2022/05/24 02:58:37;;;;;;;0.28;0.28;;;;;;;16.34;65.38;100116.25;5010218;28;20038;-78
2022/05/24 03:01:10;;;;;;;0.10;0.10;;;;;;;16.26;64.85;100121.16;5013274;28;20391;-79
2022/05/24 03:03:36;;;;;;;0.10;0.10;;;;;;;16.26;64.99;100123.84;5013735;28;20037;-78
2022/05/24 03:06:03;;;;;;;1.05;1.05;;;;;;;16.22;65.17;100124.09;5012555;28;20037;-78
2022/05/24 03:11:15;;;;;;;0.20;0.20;;;;;;;16.15;65.11;100127.09;5001988;28;20100;-80
2022/05/24 03:16:27;;;;;;;1.25;1.25;;;;;;;16.00;65.27;100123.44;5012172;28;20042;-78
2022/05/24 03:18:53;;;;;;;0.35;0.35;;;;;;;16.05;65.38;100117.88;5021459;28;20036;-78
2022/05/24 03:21:19;;;;;;;0.10;0.10;;;;;;;16.08;65.36;100120.34;5023913;28;20083;-78
2022/05/24 03:23:45;;;;;;;0.15;0.15;;;;;;;16.12;64.98;100131.75;5019410;28;20049;-78
2022/05/24 03:26:14;;;;;;;3.00;1.40;;;;;;;16.04;65.46;100128.63;5011671;28;20065;-78
2022/05/24 03:28:41;;;;;;;0.20;0.20;;;;;;;16.04;65.38;100139.31;5016004;28;20053;-79
2022/05/24 03:31:08;;;;;;;0.70;0.70;;;;;;;15.99;65.41;100142.25;5021887;28;20025;-78
2022/05/24 03:33:45;;;;;;;1.08;1.08;;;;;;;16.12;65.23;100143.28;5017639;28;20356;-78
2022/05/24 03:36:11;;;;;;;0.00;0.00;;;;;;;15.95;65.78;100159.38;5013039;28;20050;-77
2022/05/24 03:38:38;;;;;;;0.10;0.10;;;;;;;16.04;65.60;100158.88;5011902;28;20026;-78
2022/05/24 03:41:04;;;;;;;0.40;0.40;;;;;;;16.07;65.21;100156.03;5020796;28;20790;-79
2022/05/24 03:43:30;;;;;;;0.57;0.57;;;;;;;15.97;65.08;100165.50;5022560;28;20036;-79
2022/05/24 03:46:02;;;;;;;2.00;0.75;;;;;;;15.98;65.17;100164.56;5015233;28;20117;-78
2022/05/24 03:48:28;;;;;;;0.20;0.20;;;;;;;15.99;65.45;100176.97;5016066;28;20050;-77
2022/05/24 03:50:56;;;;;;;0.40;0.40;;;;;;;15.97;65.35;100177.03;5015590;28;20087;-77
2022/05/24 03:53:22;;;;;;;0.40;0.40;;;;;;;15.99;65.04;100180.50;5010157;28;20029;-78
2022/05/24 03:55:49;;;;;;;1.35;1.35;;;;;;;16.03;65.16;100197.22;5005671;28;20075;-78
2022/05/24 03:58:15;;;;;;;1.25;0.75;;;;;;;16.03;65.23;100205.25;5017596;28;20057;-79
2022/05/24 04:00:44;;;;;;;0.25;0.25;;;;;;;15.94;65.27;100206.59;5021591;28;20136;-77
2022/05/24 04:03:10;;;;;;;0.03;0.03;;;;;;;16.05;65.37;100208.72;5026718;28;20033;-78
2022/05/24 04:05:37;;;;;;;0.45;0.45;;;;;;;16.04;65.45;100209.66;5018941;28;20029;-78
2022/05/24 04:08:04;;;;;;;0.63;0.63;;;;;;;16.05;64.88;100202.50;5012358;28;20395;-78
2022/05/24 04:10:32;;;;;;;0.40;0.40;;;;;;;16.04;65.07;100198.97;5020238;28;20062;-78
2022/05/24 04:12:58;;;;;;;0.43;0.43;;;;;;;15.91;65.48;100189.88;5011168;28;20680;-78
2022/05/24 04:15:25;;;;;;;0.10;0.10;;;;;;;16.10;65.09;100193.28;5020148;28;20064;-79
2022/05/24 04:17:53;;;;;;;0.30;0.30;;;;;;;16.10;64.78;100193.28;5013698;28;20080;-78
2022/05/24 04:20:21;;;;;;;0.30;0.30;;;;;;;15.98;64.87;100199.28;5016089;28;20045;-78
2022/05/24 04:22:47;;;;;;;1.10;1.02;;;;;;;15.92;64.75;100200.47;5015193;28;20030;-78
2022/05/24 04:25:14;;;;;;;0.10;0.10;;;;;;;15.93;64.96;100196.00;5016085;28;20058;-79
2022/05/24 04:27:41;;;;;;;0.10;0.10;;;;;;;16.04;64.24;100192.75;5011555;28;20037;-78
2022/05/24 04:30:09;;;;;;;0.10;0.10;;;;;;;15.98;64.30;100189.44;5006551;28;20030;-78
2022/05/24 04:32:35;;;;;;;0.15;0.15;;;;;;;15.93;64.44;100196.00;5013395;28;20030;-78
2022/05/24 04:35:01;;;;;;;0.00;0.00;;;;;;;15.97;64.11;100203.75;5010860;28;20046;-78
2022/05/24 04:37:27;;;;;;;0.10;0.10;;;;;;;15.92;64.43;100204.97;5021341;28;20112;-78
2022/05/24 04:39:53;;;;;;;0.25;0.25;;;;;;;15.93;64.14;100196.00;5013247;28;20025;-78
2022/05/24 04:42:20;;;;;;;0.65;0.65;;;;;;;15.96;64.40;100209.19;5009914;28;20117;-77
2022/05/24 04:44:50;;;;;;;0.28;0.28;;;;;;;15.95;64.09;100199.44;5008058;28;20041;-77
2022/05/24 04:47:17;;;;;;;0.20;0.20;;;;;;;15.88;64.38;100200.72;5004678;28;20402;-78
2022/05/24 04:49:46;;;;;;;0.68;0.52;;;;;;;15.89;64.46;100187.28;5012942;28;20055;-77
2022/05/24 04:52:14;;;;;;;0.10;0.10;;;;;;;15.87;64.62;100201.66;5008760;28;20451;-78
2022/05/24 04:54:41;;;;;;;0.77;0.77;;;;;;;15.83;64.22;100207.16;5007687;28;20091;-78
2022/05/24 04:57:09;;;;;;;0.50;0.50;;;;;;;15.79;64.33;100200.22;5012869;28;20120;-78
2022/05/24 04:59:35;;;;;;;0.85;0.65;;;;;;;15.79;64.38;100216.25;5009107;28;20071;-79
2022/05/24 05:02:02;;;;;;;0.17;0.17;;;;;;;15.78;64.30;100222.53;5007369;28;20026;-78
2022/05/24 05:04:29;;;;;;;0.08;0.08;;;;;;;15.80;64.16;100234.00;5012688;28;20030;-78
2022/05/24 05:06:55;;;;;;;0.10;0.10;;;;;;;15.76;64.36;100223.56;5013162;28;20038;-78
2022/05/24 05:09:22;;;;;;;0.00;0.00;;;;;;;15.75;64.13;100233.38;4991435;28;20125;-78
2022/05/24 05:11:51;;;;;;;0.00;0.00;;;;;;;15.58;64.10;100230.72;5002166;28;20113;-78
2022/05/24 05:14:17;;;;;;;0.80;0.80;;;;;;;15.53;64.18;100228.28;5013398;28;20404;-77
2022/05/24 05:16:43;;;;;;;0.10;0.10;;;;;;;15.59;64.47;100246.66;5013182;28;20475;-78
2022/05/24 05:19:11;;;;;;;0.20;0.20;;;;;;;15.62;64.38;100250.97;5014813;28;20057;-78
2022/05/24 05:21:39;;;;;;;0.40;0.40;;;;;;;15.48;64.57;100249.84;5013352;28;20096;-78
2022/05/24 05:24:07;;;;;;;1.90;1.17;;;;;;;15.39;64.74;100255.66;5014123;28;20080;-79
2022/05/24 05:26:34;;;;;;;0.10;0.10;;;;;;;15.43;64.51;100251.03;5002592;28;20042;-78
2022/05/24 05:29:00;;;;;;;0.32;0.32;;;;;;;15.35;64.63;100256.72;5012012;28;20026;-78
2022/05/24 05:31:27;;;;;;;0.05;0.05;;;;;;;15.34;64.80;100258.56;5010714;28;20052;-78
2022/05/24 05:33:55;;;;;;;0.52;0.35;;;;;;;15.41;64.51;100264.44;5009550;28;20053;-78
2022/05/24 05:36:22;;;;;;;0.10;0.10;;;;;;;15.33;64.74;100269.31;5000803;28;20038;-78
2022/05/24 05:38:48;;;;;;;0.10;0.10;;;;;;;15.37;64.61;100260.19;5013096;28;20033;-78
2022/05/24 05:41:17;;;;;;;0.10;0.10;;;;;;;15.40;64.98;100268.03;5010852;28;20128;-78
2022/05/24 05:43:44;;;;;;;0.10;0.10;;;;;;;15.43;64.58;100267.06;5012580;28;20064;-80
2022/05/24 05:46:13;;;;;;;0.10;0.10;;;;;;;15.58;63.81;100268.09;5004229;28;20041;-80
2022/05/24 05:48:42;;;;;;;0.10;0.10;;;;;;;15.50;64.02;100272.00;5006965;28;20112;-79
2022/05/24 05:51:10;;;;;;;0.00;0.00;;;;;;;15.44;64.23;100279.44;5012199;28;20652;-79
2022/05/24 05:53:37;;;;;;;0.75;0.75;;;;;;;15.43;64.23;100278.59;5015303;28;20539;-79
2022/05/24 05:56:05;;;;;;;0.52;0.38;;;;;;;15.51;64.23;100281.75;5013318;28;20026;-79
2022/05/24 05:58:32;;;;;;;0.30;0.30;;;;;;;15.57;64.25;100279.72;5004204;28;20033;-80
2022/05/24 06:01:00;;;;;;;0.40;0.40;;;;;;;15.61;63.89;100289.28;5012421;28;20033;-80
2022/05/24 06:03:31;;;;;;;0.20;0.20;;;;;;;15.72;64.03;100291.44;5011610;28;20530;-80
2022/05/24 06:06:00;;;;;;;0.08;0.08;;;;;;;15.76;63.74;100298.34;5010518;28;20121;-80
2022/05/24 06:38:44;;;;;;;0.52;0.52;;;;;;;16.60;60.53;100317.19;5017066;28;20116;-80
2022/05/24 06:41:10;;;;;;;0.63;0.60;;;;;;;16.52;60.78;100321.22;5016955;28;20073;-79
2022/05/24 06:43:37;;;;;;;0.90;0.90;;;;;;;16.45;60.82;100316.19;5009101;28;20507;-81
2022/05/24 06:46:07;;;;;;;0.10;0.10;;;;;;;16.73;59.98;100314.69;5013772;28;20033;-82
2022/05/24 06:48:35;;;;;;;0.10;0.10;;;;;;;16.74;59.16;100324.44;5006887;28;20026;-81
2022/05/24 06:51:07;;;;;;;0.10;0.10;;;;;;;16.70;59.18;100328.25;5008981;28;20048;-82
2022/05/24 06:53:34;;;;;;;0.10;0.10;;;;;;;16.72;58.78;100337.03;5002752;28;20492;-81
2022/05/24 06:56:00;;;;;;;0.10;0.10;;;;;;;16.74;58.59;100351.19;5010577;28;20064;-81
2022/05/24 06:58:26;;;;;;;0.00;0.00;;;;;;;16.80;58.75;100339.31;5003625;28;20038;-81
2022/05/24 07:03:38;;;;;;;0.08;0.08;;;;;;;16.87;58.70;100354.06;5006320;28;20030;-80
2022/05/24 07:06:05;;;;;;;0.45;0.45;;;;;;;17.02;58.10;100340.84;5018926;28;20451;-81
2022/05/24 07:08:31;;;;;;;0.28;0.28;;;;;;;17.13;57.17;100355.38;5012492;28;20034;-80
2022/05/24 07:10:57;;;;;;;0.10;0.10;;;;;;;17.26;57.26;100352.03;5002907;28;20048;-78
2022/05/24 07:13:24;;;;;;;3.25;0.93;;;;;;;17.28;57.55;100366.16;5014154;28;20046;-80
2022/05/24 07:15:50;;;;;;;0.10;0.10;;;;;;;17.10;56.99;100374.28;5006454;28;20036;-79
2022/05/24 07:18:16;;;;;;;0.22;0.22;;;;;;;17.14;57.63;100373.13;5012471;28;20037;-77
2022/05/24 07:20:43;;;;;;;0.00;0.00;;;;;;;16.98;58.08;100378.50;5010637;28;20036;-79
2022/05/24 07:23:16;;;;;;;0.10;0.10;;;;;;;16.73;58.99;100380.72;5035533;22;20029;-83
2022/05/24 07:25:44;;;;;;;0.17;0.17;;;;;;;16.73;59.34;100381.56;5005546;28;20041;-83
2022/05/24 07:28:12;;;;;;;0.22;0.22;;;;;;;16.80;59.58;100384.81;5009244;28;20124;-83
2022/05/24 07:30:39;;;;;;;0.40;0.40;;;;;;;16.63;59.95;100388.38;5013503;28;20048;-82
2022/05/24 07:33:06;;;;;;;0.10;0.10;;;;;;;16.48;60.27;100390.88;5015859;28;20537;-82
2022/05/24 07:35:33;;;;;;;0.00;0.00;;;;;;;16.70;59.73;100400.47;5015710;28;20118;-83
2022/05/24 07:37:59;;;;;;;0.10;0.10;;;;;;;16.62;59.48;100402.69;5016776;28;20036;-83
2022/05/24 07:46:06;;;;;;;3.97;1.10;;;;;;;16.31;60.77;100420.28;5015541;28;20121;-83
2022/05/24 07:48:34;;;;;;;0.17;0.17;;;;;;;16.30;61.32;100410.56;5013917;28;20505;-83
2022/05/24 07:51:01;;;;;;;0.00;0.00;;;;;;;16.29;60.98;100422.19;5018576;28;20108;-83
2022/05/24 07:53:27;;;;;;;0.10;0.10;;;;;;;16.30;61.95;100414.09;5016277;28;20030;-83
2022/05/24 07:55:55;;;;;;;0.10;0.10;;;;;;;16.27;62.29;100419.59;5011446;28;20032;-85
2022/05/24 07:58:21;;;;;;;0.10;0.10;;;;;;;16.18;60.97;100431.59;5012596;28;20030;-83
2022/05/24 08:00:48;;;;;;;0.10;0.10;;;;;;;16.11;60.95;100446.25;5015560;28;20148;-83
2022/05/24 08:03:14;;;;;;;0.03;0.03;;;;;;;16.20;60.63;100428.00;5015679;28;20501;-82
2022/05/24 08:05:41;;;;;;;0.30;0.30;;;;;;;16.10;60.87;100428.47;5006770;28;20038;-84
2022/05/24 08:08:08;;;;;;;0.00;0.00;;;;;;;16.07;60.96;100428.59;5000651;28;20054;-83
2022/05/24 08:10:36;;;;;;;0.05;0.05;;;;;;;16.06;60.20;100429.53;4998593;28;20030;-84
2022/05/24 08:13:06;;;;;;;0.10;0.10;;;;;;;15.98;59.06;100435.28;5002687;28;20037;-84
2022/05/24 08:15:33;;;;;;;0.00;0.00;;;;;;;15.99;58.97;100430.81;4997593;28;20506;-84
2022/05/24 08:17:59;;;;;;;0.00;0.00;;;;;;;15.99;59.15;100434.34;4993103;28;20474;-84
2022/05/24 08:20:26;;;;;;;0.10;0.10;;;;;;;16.06;59.19;100434.88;4993407;28;20093;-84
2022/05/24 08:22:52;;;;;;;0.17;0.17;;;;;;;16.03;59.40;100445.75;5005130;28;20037;-85
2022/05/24 08:25:19;;;;;;;0.10;0.10;;;;;;;16.26;58.67;100449.06;5017001;28;20069;-84
2022/05/24 08:27:45;;;;;;;0.05;0.05;;;;;;;16.45;58.96;100455.22;5007484;28;20040;-83
2022/05/24 08:30:15;;;;;;;0.10;0.10;;;;;;;16.60;58.74;100447.38;4997806;28;20064;-83
2022/05/24 08:32:42;;;;;;;0.10;0.10;;;;;;;16.84;57.63;100445.22;5002233;28;20034;-84
2022/05/24 08:35:11;;;;;;;0.05;0.05;;;;;;;16.96;57.00;100438.41;5033461;28;20055;-84
2022/05/24 08:37:38;;;;;;;0.10;0.10;;;;;;;17.13;57.40;100467.81;5033389;28;20053;-84
2022/05/24 08:40:05;;;;;;;0.10;0.10;;;;;;;16.94;58.57;100465.22;5037526;28;20040;-83
2022/05/24 08:43:11;;;;;;;0.10;0.10;;;;;;;16.35;59.47;100483.38;5036741;28;20067;-84
2022/05/24 08:51:31;;;;;;;0.10;0.10;;;;;;;15.81;62.52;100486.84;5067461;27;20399;-80
2022/05/24 08:54:04;;;;;;;0.00;0.00;;;;;;;15.63;63.18;100493.91;5068844;27;20064;-80
2022/05/24 08:56:37;;;;;;;0.47;0.47;;;;;;;15.58;64.51;100495.06;5068174;28;20398;-80
2022/05/24 08:59:28;;;;;;;0.10;0.10;;;;;;;15.71;64.12;100503.38;5066099;28;20442;-80
2022/05/24 09:01:56;;;;;;;0.00;0.00;;;;;;;15.83;64.20;100505.50;5065569;27;20025;-80
2022/05/24 09:04:23;;;;;;;0.10;0.10;;;;;;;15.90;64.25;100512.28;5066570;28;20037;-80
2022/05/24 09:09:39;;;;;;;0.10;0.10;;;;;;;16.20;63.74;100510.84;5090118;27;20384;-80
2022/05/24 09:18:04;;;;;;;0.32;0.32;;;;;;;16.74;62.69;100516.22;5070594;28;20395;-81
2022/05/24 09:23:28;;;;;;;0.03;0.03;;;;;;;17.05;60.67;100520.88;5092104;27;20373;-81
2022/05/24 09:31:30;;;;;;;0.10;0.10;;;;;;;16.19;59.90;100563.47;5107995;27;20390;-78
2022/05/24 09:34:00;;;;;;;0.00;0.00;;;;;;;15.90;60.33;100570.16;5111485;28;20076;-80
2022/05/24 09:39:42;;;;;;;0.00;0.00;;;;;;;14.97;64.03;100596.47;5111600;27;20384;-80
2022/05/24 09:42:23;;;;;;;0.10;0.10;;;;;;;14.74;64.83;100605.41;5110303;28;20035;-80
2022/05/24 09:47:36;;;;;;;0.05;0.05;;;;;;;14.67;65.44;100593.28;5111267;27;20140;-80
2022/05/24 09:53:16;;;;;;;0.00;0.00;;;;;;;14.76;66.77;100595.56;5066968;28;20456;-81
2022/05/24 09:58:32;;;;;;;0.10;0.10;;;;;;;15.19;67.43;100601.75;5110912;27;20897;-80
2022/05/24 10:01:20;;;;;;;0.00;0.00;;;;;;;15.55;67.06;100610.00;5110946;28;20036;-81
2022/05/24 10:03:48;;;;;;;0.10;0.10;;;;;;;15.61;65.52;100615.94;5111945;28;20039;-81
2022/05/24 10:06:31;;;;;;;0.45;0.45;;;;;;;15.96;64.84;100617.97;5111747;28;20034;-81
2022/05/24 10:09:00;;;;;;;0.10;0.10;;;;;;;15.98;64.30;100618.78;5112367;28;20044;-81
2022/05/24 10:17:26;;;;;;;0.10;0.10;;;;;;;15.99;63.51;100633.88;5111062;27;20395;-81
2022/05/24 10:20:05;;;;;;;0.10;0.10;;;;;;;16.08;62.59;100627.25;5112294;28;20043;-81
2022/05/24 10:22:39;;;;;;;15.32;1.23;;;;;;;16.14;62.69;100627.81;5111047;28;20062;-81
2022/05/24 10:30:31;;;;;;;0.10;0.10;;;;;;;16.62;60.71;100651.44;5070221;28;20395;-82
2022/05/24 10:42:31;;;;;;;1.20;0.95;;;;;;;17.19;59.04;100637.06;5070751;28;20445;-82
2022/05/24 10:45:11;;;;;;;0.10;0.10;;;;;;;17.25;55.97;100647.47;5071895;28;20033;-82
2022/05/24 10:47:57;;;;;;;0.00;0.00;;;;;;;17.58;56.72;100638.63;5071967;28;20036;-82
2022/05/24 10:50:34;;;;;;;0.10;0.10;;;;;;;17.60;56.26;100644.78;5072283;28;20060;-82
2022/05/24 10:53:25;;;;;;;0.10;0.10;;;;;;;17.97;56.84;100645.53;5070977;28;20086;-82
2022/05/24 10:56:02;;;;;;;0.05;0.05;;;;;;;17.92;54.70;100647.56;5070812;28;20052;-82
2022/05/24 10:58:32;;;;;;;0.10;0.10;;;;;;;17.99;53.99;100651.66;5071283;28;20028;-82
2022/05/24 11:03:56;;;;;;;0.10;0.10;;;;;;;17.88;53.20;100649.53;5071956;28;20379;-80
2022/05/24 11:06:39;;;;;;;0.10;0.10;;;;;;;17.70;53.19;100646.00;5071893;28;20059;-82
2022/05/24 11:14:34;;;;;;;0.10;0.10;;;;;;;17.63;53.46;100658.88;5128474;27;20380;-82
2022/05/24 11:17:01;;;;;;;0.10;0.10;;;;;;;17.75;51.41;100670.75;5112495;28;20032;-83
2022/05/24 11:19:32;;;;;;;0.08;0.08;;;;;;;17.68;51.60;100665.78;5112208;28;20020;-82
2022/05/24 11:27:15;;;;;;;0.10;0.10;;;;;;;18.01;51.40;100679.25;5125691;27;20137;-80
2022/05/24 11:29:48;;;;;;;0.10;0.10;;;;;;;18.26;51.64;100685.97;5092718;28;20092;-83
2022/05/24 11:32:32;;;;;;;0.00;0.00;;;;;;;18.42;51.40;100680.63;5091431;28;20028;-82
2022/05/24 11:35:11;;;;;;;1.10;0.75;;;;;;;18.66;51.41;100674.84;5092073;28;20032;-82
2022/05/24 11:37:43;;;;;;;0.10;0.10;;;;;;;18.64;50.23;100695.50;5092191;28;20028;-82
2022/05/24 11:40:31;;;;;;;0.10;0.10;;;;;;;18.71;50.08;100681.66;5092321;28;20064;-82
2022/05/24 11:43:00;;;;;;;0.10;0.10;;;;;;;18.70;51.84;100685.28;5091379;28;20032;-82
2022/05/24 11:50:47;;;;;;;0.10;0.10;;;;;;;18.88;48.77;100677.16;5094613;27;1890341;-83
2022/05/24 12:23:40;;;;;;;0.10;0.10;;;;;;;19.32;44.50;100723.88;5109881;27;20358;-83
2022/05/24 12:26:17;;;;;;;0.10;0.10;;;;;;;19.19;43.43;100721.03;5111170;28;20053;-84
2022/05/24 12:28:54;;;;;;;0.10;0.10;;;;;;;19.22;44.10;100734.31;5110667;28;20407;-85
2022/05/24 12:34:03;;;;;;;0.10;0.10;;;;;;;18.87;44.94;100737.16;5107519;27;20387;-81
2022/05/24 12:39:19;;;;;;;0.10;0.10;;;;;;;19.49;45.08;100728.25;5093146;27;21108;-83
2022/05/24 12:41:48;;;;;;;0.10;0.10;;;;;;;19.56;44.49;100740.38;5092818;28;20055;-83
2022/05/24 12:44:19;;;;;;;0.10;0.10;;;;;;;19.62;42.83;100748.06;5092699;28;20055;-82
2022/05/24 12:52:27;;;;;;;0.10;0.10;;;;;;;19.56;43.14;100752.00;5068445;28;20356;-83
2022/05/24 12:57:47;;;;;;;0.10;0.10;;;;;;;19.54;43.13;100734.25;5082758;27;1186610;-80
2022/05/24 13:00:28;;;;;;;0.00;0.00;;;;;;;19.52;42.91;100745.06;5113870;28;20036;-81
2022/05/24 13:02:55;;;;;;;0.05;0.05;;;;;;;19.59;43.74;100734.81;5112823;28;20051;-80
2022/05/24 13:05:28;;;;;;;0.10;0.10;;;;;;;19.58;43.49;100733.09;5113158;28;20024;-81
2022/05/24 13:10:39;;;;;;;1.02;0.95;;;;;;;19.68;42.60;100739.63;5155450;27;20393;-81
2022/05/24 13:13:15;;;;;;;0.00;0.00;;;;;;;19.64;41.18;100738.09;5133903;27;20031;-81
2022/05/24 13:15:49;;;;;;;0.15;0.15;;;;;;;19.84;42.36;100738.75;5133986;28;20122;-81
2022/05/24 13:18:20;;;;;;;0.03;0.03;;;;;;;19.71;42.53;100747.53;5114827;28;20051;-81
2022/05/24 13:20:51;;;;;;;0.10;0.10;;;;;;;19.51;42.94;100758.59;5113485;28;20115;-84
2022/05/24 13:25:57;;;;;;;0.20;0.20;;;;;;;19.59;42.80;100753.63;5164647;22;20407;-78
2022/05/24 13:28:45;;;;;;;0.00;0.00;;;;;;;19.62;42.80;100756.13;5095508;28;20033;-79
2022/05/24 13:33:51;;;;;;;0.10;0.10;;;;;;;20.34;43.27;100750.91;5116115;27;20912;-79
2022/05/24 13:41:45;;;;;;;0.00;0.00;;;;;;;20.59;40.92;100762.81;5074688;28;20406;-80
2022/05/24 13:44:33;;;;;;;0.10;0.10;;;;;;;20.55;41.56;100760.41;5075397;28;20033;-80
2022/05/24 13:47:09;;;;;;;0.03;0.03;;;;;;;20.40;40.86;100762.22;5075627;28;20021;-79
2022/05/24 13:52:27;;;;;;;0.30;0.30;;;;;;;20.21;40.76;100768.75;5121449;27;1214324;-80
2022/05/24 13:58:13;;;;;;;0.10;0.10;;;;;;;20.04;40.25;100776.03;5115674;27;21038;-80
2022/05/24 14:00:59;;;;;;;;;;;;;;;20.39;40.39;100777.53;5115575;28;20043;-77
2022/05/24 14:03:28;;;;;;;0.00;0.00;;;;;;;20.55;39.92;100784.63;5115892;28;19908;-79
2022/05/24 14:06:13;;;;;;;0.10;0.10;;;;;;;20.69;37.63;100798.09;5115591;28;20020;-80
2022/05/24 14:08:44;;;;;;;0.00;0.00;;;;;;;20.67;37.56;100795.50;5113907;28;20024;-79
2022/05/24 14:11:13;;;;;;;0.00;0.00;;;;;;;20.43;38.24;100799.72;5112526;28;20028;-80
2022/05/24 14:13:42;;;;;;;0.10;0.10;;;;;;;20.38;38.38;100796.47;5119712;28;20038;-79
2022/05/24 14:16:08;;;;;;;0.00;0.00;;;;;;;20.32;39.08;100798.53;5125906;28;20027;-79
2022/05/24 14:18:34;;;;;;;0.00;0.00;;;;;;;20.20;38.60;100799.34;5123988;28;20447;-80
2022/05/24 14:21:01;;;;;;;0.10;0.10;;;;;;;20.15;39.31;100806.78;5115709;28;20035;-79
2022/05/24 14:23:28;;;;;;;0.08;0.08;;;;;;;20.09;39.52;100813.44;5115980;28;20034;-78
2022/05/24 14:25:54;;;;;;;0.10;0.10;;;;;;;20.16;40.01;100809.41;5114766;28;20024;-80
2022/05/24 14:28:20;;;;;;;0.10;0.10;;;;;;;20.15;39.64;100809.47;5101202;28;20036;-80
2022/05/24 14:30:48;;;;;;;0.10;0.10;;;;;;;19.95;40.08;100822.31;5093468;28;20035;-79
2022/05/24 14:33:18;;;;;;;0.10;0.10;;;;;;;19.91;39.83;100822.59;5097972;28;20514;-79
2022/05/24 14:35:44;;;;;;;1.08;1.08;;;;;;;19.93;40.17;100832.31;5105194;28;20062;-80
2022/05/24 14:38:11;;;;;;;0.08;0.08;;;;;;;19.72;40.39;100832.56;5106496;28;20513;-79
2022/05/24 14:40:38;;;;;;;0.10;0.10;;;;;;;19.77;41.17;100831.44;5104619;28;20107;-80
2022/05/24 14:43:09;;;;;;;0.10;0.10;;;;;;;19.86;41.20;100831.81;5104286;28;20019;-79
2022/05/24 14:45:39;;;;;;;0.10;0.10;;;;;;;20.40;40.68;100821.44;5101132;28;20707;-79
2022/05/24 14:48:09;;;;;;;0.10;0.10;;;;;;;20.85;39.45;100830.31;5102402;28;20545;-79
2022/05/24 14:50:37;;;;;;;0.10;0.10;;;;;;;21.08;38.72;100833.38;5104900;28;20029;-79
2022/05/24 14:53:04;;;;;;;0.10;0.10;;;;;;;20.80;38.54;100829.75;5102546;28;20040;-79